Latest Weather Observations for Brisbane Airport

IDQ60801

Issued at 11:05 pm EST Thursday 31 July 2014 (issued every 30 minutes, with the page automatically refreshed every 10 minutes)

About weather observations | Map of weather stations | Latest weather observations for QLD | Other Formats
Station Details ID: 040842 Name: BRISBANE AERO Lat: -27.39 Lon: 153.13 Height: 4.51 m
Data from the previous 72 hours. | See also: Recent months at Brisbane Airport
Date/Time
EST
Temp
°C
App
Temp
°C
Dew
Point
Rel
Hum
%
Delta-T
°C
Wind Press
QNH
hPa
Press
MSL
hPa
Rain
since 9 am
mm
Dir
 
Spd
km/h
Gust
km/h
Spd
kts
Gust
kts
31/11:00pm 16.7 15.0 13.5 81 1.8 NNW 15 17 8 9 1017.4 - -
31/10:30pm 17.3 14.3 13.6 79 2.1 N 22 28 12 15 1017.5 - -
31/10:00pm 17.1 14.1 13.7 80 1.9 N 22 28 12 15 1017.4 - -
31/09:30pm 17.3 15.0 14.0 81 1.9 N 19 35 10 19 1017.4 - -
31/09:00pm 17.7 15.2 14.0 79 2.1 N 20 28 11 15 1017.5 1017.5 0.0
31/08:30pm 17.7 15.2 14.0 79 2.1 NNW 20 26 11 14 1017.4 - -
31/08:00pm 17.7 15.1 14.8 83 1.7 N 22 28 12 15 1017.2 - -
31/07:30pm 18.1 15.8 14.6 80 2.0 N 20 28 11 15 1016.7 - -
31/07:00pm 17.5 14.7 15.3 87 1.3 N 24 32 13 17 1016.4 - -
31/06:30pm 18.0 15.5 15.1 83 1.7 N 22 30 12 16 1016.2 - -
31/06:00pm 17.9 14.8 14.6 81 1.9 N 24 30 13 16 1016.0 1016.0 -
31/05:30pm 18.8 15.7 14.5 76 2.5 NNE 24 30 13 16 1015.8 - -
31/05:00pm 19.2 16.2 14.9 76 2.5 NNE 24 32 13 17 1015.8 - -
31/04:30pm 19.8 16.3 15.4 76 2.6 NNE 28 35 15 19 1015.5 - -
31/04:00pm 20.3 16.4 15.4 73 2.9 NNE 30 37 16 20 1015.4 - -
31/03:30pm 21.0 17.0 15.3 70 3.4 NNE 30 37 16 20 1015.5 - -
31/03:00pm 21.2 17.4 14.7 66 3.8 NNE 28 35 15 19 1015.7 1015.7 0.0
31/02:30pm 21.4 16.8 13.6 61 4.5 NNE 30 37 16 20 1015.8 - -
31/02:00pm 21.8 19.6 12.2 54 5.4 NNE 15 - 8 - 1016.2 - -
31/01:30pm 21.9 16.3 10.3 47 6.3 NNE 30 35 16 19 1016.7 - 0.0
31/01:00pm 22.2 16.9 9.8 45 6.7 NNE 28 33 15 18 1017.4 - 0.0
31/12:30pm 21.7 17.2 8.4 42 7.0 NNE 22 28 12 15 1018.2 - 0.0
31/12:00pm 21.5 17.8 7.8 41 7.1 NNE 17 19 9 10 1018.9 1018.9 0.0
31/11:30am 21.9 17.8 6.2 36 7.9 N 17 19 9 10 1019.6 - 0.0
31/11:00am 20.6 18.0 7.8 43 6.6 NNE 11 15 6 8 1020.3 - 0.0
31/10:30am 19.0 16.2 7.1 46 6.0 N 11 13 6 7 1021.0 - 0.0
31/10:00am 18.7 16.3 6.9 46 5.9 N 9 13 5 7 1021.4 - 0.0
31/09:30am 16.9 15.1 7.0 52 4.9 NW 6 7 3 4 1021.7 - 0.0
31/09:00am 15.4 13.8 7.8 60 3.8 WNW 6 9 3 5 1021.8 1021.8 0.0
31/08:30am 12.9 10.7 6.4 64 3.1 W 7 11 4 6 1021.6 - -
31/08:00am 10.7 8.5 6.4 75 2.0 SW 7 9 4 5 1021.3 - -
31/07:30am 8.9 7.2 6.0 82 1.3 SW 4 7 2 4 1021.0 - -
31/07:00am 7.5 6.4 5.2 85 1.0 CALM 0 0 0 0 1020.7 - -
31/06:30am 7.9 6.4 5.2 83 1.2 WSW 2 7 1 4 1020.4 - -
31/06:00am 7.1 4.1 4.1 81 1.3 SW 9 11 5 6 1020.3 1020.3 0.0
31/05:30am 7.5 4.7 5.0 84 1.1 SSW 9 11 5 6 1020.2 - 0.0
31/05:00am 9.1 7.3 5.3 77 1.7 S 4 9 2 5 1020.0 - 0.0
31/04:30am 9.6 6.8 5.2 74 2.0 S 9 11 5 6 1019.9 - 0.0
31/04:00am 9.5 6.5 5.8 78 1.7 S 11 15 6 8 1019.9 - -
31/03:30am 10.2 7.7 8.1 87 1.0 SSW 11 17 6 9 1019.9 - -
31/03:00am 9.0 5.6 7.5 90 0.7 SSW 15 19 8 10 1019.8 1019.8 0.0
31/02:30am 8.6 6.4 6.4 86 1.0 SW 7 9 4 5 1019.8 - 0.0
31/02:11am 9.3 7.4 7.4 88 0.9 WSW 7 9 4 5 1019.8 - 0.0
31/02:00am 9.5 7.8 7.4 87 1.0 WSW 6 7 3 4 1019.9 - 0.0
31/01:30am 9.3 7.4 7.4 88 0.9 NW 7 9 4 5 1020.0 - 0.0
31/01:16am 9.5 7.5 7.2 85 1.1 NW 7 9 4 5 1020.1 - -
31/01:00am 9.9 8.1 8.0 88 0.9 NW 7 9 4 5 1020.1 - -
31/12:30am 9.8 8.4 8.8 93 0.5 NW 6 7 3 4 1020.2 - 0.0
31/12:00am 10.3 8.7 10.1 99 0.1 NW 9 13 5 7 1020.3 1020.3 0.0
 
Date/Time
EST
Temp
°C
App
Temp
°C
Dew
Point
Rel
Hum
%
Delta-T
°C
Wind Press
QNH
hPa
Press
MSL
hPa
Rain
since 9 am
mm
Dir
 
Spd
km/h
Gust
km/h
Spd
kts
Gust
kts
30/11:30pm 12.1 11.5 11.7 97 0.2 NNW 6 9 3 5 1020.5 - 0.0
30/11:15pm 12.1 12.0 10.9 92 0.6 WNW 2 7 1 4 1020.4 - -
30/11:00pm 10.4 10.6 10.4 100 0.0 CALM 0 - 0 - 1020.4 - 0.0
30/10:30pm 12.6 12.2 12.4 99 0.1 W 6 9 3 5 1020.8 - 0.0
30/10:24pm 12.1 11.6 12.1 100 0.0 WSW 6 7 3 4 1020.8 - -
30/10:10pm 13.8 13.7 13.4 97 0.2 W 6 9 3 5 1020.8 - 0.0
30/10:00pm 13.5 13.4 13.3 99 0.1 W 6 7 3 4 1020.8 - 0.0
30/09:30pm 14.9 15.1 14.7 99 0.1 NNW 7 13 4 7 1020.8 - 0.0
30/09:23pm 13.6 13.5 13.2 97 0.2 N 6 17 3 9 1020.8 - 0.0
30/09:09pm 14.9 16.4 14.7 99 0.1 CALM 0 - 0 - 1020.7 - 0.0
30/09:00pm 14.8 15.5 14.4 97 0.2 N 4 9 2 5 1020.6 1020.6 0.0
30/08:30pm 15.4 15.7 15.1 98 0.2 N 7 9 4 5 1020.6 - 0.0
30/08:00pm 15.7 15.8 15.4 98 0.2 N 9 9 5 5 1020.5 - 0.0
30/07:30pm 16.0 16.0 15.3 96 0.4 NNE 9 11 5 6 1020.3 - 0.0
30/07:00pm 15.4 14.7 14.3 93 0.6 NNE 11 13 6 7 1020.2 - -
30/06:30pm 16.0 15.3 14.4 90 0.9 NNE 11 13 6 7 1019.9 - 0.0
30/06:00pm 16.1 15.0 14.3 89 1.0 NNE 13 17 7 9 1019.5 1019.5 0.0
30/05:30pm 17.6 16.7 14.8 84 1.6 NE 13 15 7 8 1019.1 - 0.0
30/05:00pm 18.9 18.0 14.8 77 2.4 NE 13 15 7 8 1018.9 - 0.0
30/04:30pm 19.9 18.2 14.6 71 3.1 NE 17 24 9 13 1018.9 - 0.0
30/04:00pm 20.6 18.4 13.2 62 4.2 NE 17 22 9 12 1018.7 - 0.0
30/03:30pm 21.4 18.0 10.6 50 5.9 NE 19 24 10 13 1018.5 - 0.0
30/03:00pm 21.8 17.3 6.1 36 7.9 NE 19 24 10 13 1018.4 1018.4 0.0
30/02:30pm 22.3 18.1 3.9 30 8.9 NE 15 19 8 10 1018.6 - 0.0
30/02:00pm 22.3 17.8 4.2 30 8.8 NE 17 19 9 10 1018.7 - 0.0
30/01:30pm 22.7 18.7 4.9 31 8.8 NNE 15 19 8 10 1019.0 - 0.0
30/01:00pm 22.7 19.0 4.6 30 8.9 NE 13 17 7 9 1019.4 - 0.0
30/12:30pm 21.0 17.6 4.2 33 8.1 ENE 11 13 6 7 1020.1 - 0.0
30/12:00pm 21.2 18.4 3.3 30 8.5 NNE 7 11 4 6 1020.9 1020.9 0.0
30/11:30am 21.0 17.9 5.4 36 7.7 NNE 11 15 6 8 1021.4 - 0.0
30/11:00am 20.6 17.5 3.8 33 8.0 N 9 11 5 6 1021.9 - 0.0
30/10:30am 19.4 16.4 4.0 36 7.3 NNW 9 13 5 7 1022.3 - 0.0
30/10:00am 18.7 15.6 3.5 36 7.1 W 9 13 5 7 1022.8 - 0.0
30/09:30am 16.2 13.5 3.8 43 5.7 SW 7 9 4 5 1023.0 - 0.0
30/09:00am 14.5 11.6 4.8 52 4.5 SSW 9 13 5 7 1023.1 1023.1 0.0
30/08:30am 12.5 9.1 5.9 64 3.1 SSW 13 15 7 8 1023.1 - 0.0
30/08:00am 11.1 8.4 5.4 68 2.6 S 9 13 5 7 1023.0 - 0.0
30/07:30am 9.4 6.2 5.2 75 1.9 SSW 11 17 6 9 1022.8 - 0.0
30/07:00am 8.0 4.2 3.8 75 1.8 S 13 17 7 9 1022.6 - 0.0
30/06:30am 6.8 2.9 3.5 79 1.4 SSW 13 15 7 8 1022.5 - 0.0
30/06:00am 7.0 4.3 3.7 79 1.4 S 7 11 4 6 1022.0 1022.0 0.0
30/05:30am 6.4 4.5 3.0 79 1.4 SSW 2 7 1 4 1021.8 - 0.0
30/05:00am 8.3 6.5 3.6 72 2.0 NNE 2 7 1 4 1021.4 - 0.0
30/04:30am 7.4 6.1 3.9 78 1.5 CALM 0 0 0 0 1021.3 - 0.0
30/04:00am 8.7 5.1 5.1 78 1.6 SSW 13 19 7 10 1021.0 - 0.0
30/03:30am 8.8 7.9 5.9 82 1.3 CALM 0 6 0 3 1021.0 - 0.0
30/03:00am 8.6 6.5 6.6 87 0.9 W 7 9 4 5 1021.0 1021.0 0.0
30/02:30am 8.9 6.4 6.5 85 1.1 NW 9 11 5 6 1021.2 - 0.0
30/02:00am 9.7 8.4 5.8 77 1.8 SW 2 6 1 3 1021.1 - 0.0
30/01:30am 10.5 8.8 5.9 73 2.1 S 4 9 2 5 1021.3 - 0.0
30/01:00am 10.3 7.5 6.9 79 1.6 SSW 11 13 6 7 1021.4 - 0.0
30/12:30am 10.2 10.0 9.0 92 0.6 CALM 0 0 0 0 1021.7 - 0.0
30/12:00am 11.0 10.9 9.6 91 0.7 CALM 0 0 0 0 1021.5 1021.5 0.0
 
Date/Time
EST
Temp
°C
App
Temp
°C
Dew
Point
Rel
Hum
%
Delta-T
°C
Wind Press
QNH
hPa
Press
MSL
hPa
Rain
since 9 am
mm
Dir
 
Spd
km/h
Gust
km/h
Spd
kts
Gust
kts
29/11:30pm 11.5 10.7 9.7 89 0.9 WNW 4 7 2 4 1021.4 - 0.0
29/11:00pm 12.2 10.9 9.8 85 1.2 W 7 13 4 7 1021.4 - 0.0
29/10:30pm 13.8 12.7 10.7 81 1.6 W 7 11 4 6 1021.4 - 0.0
29/10:00pm 13.4 12.5 11.3 87 1.1 WNW 7 9 4 5 1021.3 - 0.0
29/09:30pm 14.2 13.7 12.0 87 1.2 W 6 7 3 4 1021.1 - 0.0
29/09:00pm 15.0 14.2 12.8 87 1.2 WNW 9 17 5 9 1021.0 1021.0 0.0
29/08:30pm 15.0 13.7 12.6 85 1.3 NNW 11 13 6 7 1020.8 - 0.0
29/08:00pm 15.4 13.7 12.5 83 1.6 NNW 13 15 7 8 1020.6 - 0.0
29/07:30pm 14.7 12.8 11.7 82 1.6 N 13 19 7 10 1020.4 - 0.0
29/07:00pm 15.5 14.9 12.2 81 1.8 NNW 7 19 4 10 1020.3 - 0.0
29/06:30pm 15.5 13.4 11.0 74 2.4 N 13 15 7 8 1020.1 - 0.0
29/06:00pm 13.8 11.4 7.2 64 3.2 NNE 9 13 5 7 1019.8 1019.8 0.0
29/05:30pm 16.1 14.1 8.6 61 3.8 NE 9 11 5 6 1019.4 - 0.0
29/05:00pm 19.2 16.3 6.6 44 6.3 NE 11 13 6 7 1019.2 - 0.0
29/04:30pm 20.1 15.8 6.8 42 6.7 NNE 19 22 10 12 1019.1 - 0.0
29/04:00pm 22.3 19.2 5.5 33 8.4 NNE 11 17 6 9 1019.1 - 0.0
29/03:30pm 24.1 18.4 -4.1 15 11.9 WSW 17 30 9 16 1018.9 - 0.0
29/03:00pm 24.7 18.7 -3.0 16 12.0 SW 19 24 10 13 1018.9 1018.9 0.0
29/02:30pm 24.4 18.1 -3.8 15 12.0 WSW 20 32 11 17 1019.1 - 0.0
29/02:00pm 24.5 19.9 -0.8 19 11.4 WSW 13 19 7 10 1019.2 - 0.0
29/01:30pm 23.3 18.2 0.6 22 10.4 W 17 26 9 14 1019.5 - 0.0
29/01:00pm 22.8 16.5 -0.9 20 10.5 SW 22 32 12 17 1020.1 - 0.0
29/12:30pm 22.9 16.1 -2.0 19 10.8 WSW 24 33 13 18 1020.5 - 0.0
29/12:00pm 22.6 14.7 -1.4 20 10.5 WSW 30 39 16 21 1021.0 1021.0 0.0
29/11:30am 22.0 17.5 -0.6 22 10.0 WSW 13 26 7 14 1021.6 - 0.0
29/11:00am 20.8 16.8 2.9 30 8.4 SW 13 24 7 13 1022.2 - 0.0
29/10:30am 19.7 15.6 2.3 31 8.0 WSW 13 19 7 10 1022.4 - 0.0
29/10:00am 18.3 14.9 4.1 39 6.7 SW 11 17 6 9 1022.6 - 0.0
29/09:30am 16.7 13.4 4.8 45 5.6 SW 11 15 6 8 1022.9 - 0.0
29/09:00am 14.3 11.4 6.6 60 3.7 WSW 11 13 6 7 1023.0 1023.0 0.0
29/08:30am 12.9 10.6 7.6 70 2.6 WSW 9 13 5 7 1022.6 - 0.0
29/08:00am 11.1 9.1 6.4 73 2.2 WSW 6 11 3 6 1022.5 - 0.0
29/07:30am 9.4 7.0 5.2 75 1.9 WNW 7 9 4 5 1022.3 - 0.0
29/07:00am 7.5 5.0 5.0 84 1.1 WSW 7 9 4 5 1022.0 - 0.0
29/06:30am 6.7 3.4 4.6 86 0.9 W 11 15 6 8 1021.9 - 0.0
29/06:00am 5.4 2.1 4.7 95 0.3 NNW 11 13 6 7 1021.7 1021.7 0.0
29/05:30am 8.0 7.2 6.5 90 0.7 CALM 0 0 0 0 1021.3 - 0.0
29/05:00am 7.9 6.7 6.4 90 0.7 W 2 9 1 5 1021.1 - 0.0
29/04:30am 7.9 7.1 6.6 91 0.6 CALM 0 0 0 0 1020.8 - 0.0
29/04:00am 7.4 6.6 6.3 93 0.5 CALM 0 0 0 0 1020.6 - 0.0
29/03:30am 8.5 7.9 7.2 91 0.6 CALM 0 0 0 0 1020.6 - 0.0
29/03:00am 9.3 7.7 6.3 81 1.4 W 4 7 2 4 1020.6 1020.6 0.0
29/02:30am 9.7 7.5 7.8 88 0.9 W 9 9 5 5 1020.7 - 0.0
29/02:00am 10.4 8.5 9.0 91 0.7 WSW 9 11 5 6 1020.9 - 0.0
29/01:30am 10.9 9.1 9.3 90 0.8 WNW 9 11 5 6 1020.8 - 0.0
29/01:00am 10.6 8.7 9.2 91 0.7 W 9 13 5 7 1021.1 - 0.0
29/12:30am 11.0 9.2 9.4 90 0.8 W 9 9 5 5 1021.5 - 0.0
29/12:00am 11.7 10.4 9.9 89 0.9 WNW 7 9 4 5 1021.6 1021.6 0.0
 
Date/Time
EST
Temp
°C
App
Temp
°C
Dew
Point
Rel
Hum
%
Delta-T
°C
Wind Press
QNH
hPa
Press
MSL
hPa
Rain
since 9 am
mm
Dir
 
Spd
km/h
Gust
km/h
Spd
kts
Gust
kts
28/11:30pm 12.1 11.0 10.1 87 1.0 WNW 6 7 3 4 1021.9 - 0.0

Other Formats:

Comma delimited format used in spreadsheet applications
http://www.bom.gov.au/fwo/IDQ60801/IDQ60801.94578.axf

JavaScript Object Notation format (JSON) in row-major order
http://www.bom.gov.au/fwo/IDQ60801/IDQ60801.94578.json